Time;durP1;ratioP1;P1;durP2;ratioP2;P2;SDS_P1;SDS_P2;PMS_P1;PMS_P2;Temp;Humidity;BMP_temperature;BMP_pressure;BME280_temperature;BME280_humidity;BME280_pressure;Samples;Min_cycle;Max_cycle;Signal;HPM_P1;HPM_P2
2022/03/29 00:01:10;;;;;;;;;33.75;30.25;;;;;-142.59;100.00;56100.38;5099268;27;49830;-71
2022/03/29 00:03:36;;;;;;;;;32.25;29.75;;;;;-142.59;100.00;56100.38;5105395;27;49855;-77
2022/03/29 00:06:01;;;;;;;;;31.00;25.00;;;;;-142.59;100.00;56100.38;5099709;27;50888;-78
2022/03/29 00:08:27;;;;;;;;;41.00;32.50;;;;;-142.59;100.00;56100.38;5106964;27;49779;-76
2022/03/29 00:10:52;;;;;;;;;33.00;29.75;;;;;-142.59;100.00;56100.38;5112696;27;49815;-71
2022/03/29 00:13:18;;;;;;;;;34.25;30.50;;;;;-142.59;100.00;56100.38;5093803;27;49848;-74
2022/03/29 00:15:43;;;;;;;;;28.75;26.75;;;;;-142.59;100.00;56100.38;5112669;27;50693;-77
2022/03/29 00:18:09;;;;;;;;;35.75;32.00;;;;;-142.59;100.00;56100.38;5102839;27;49854;-70
2022/03/29 00:20:34;;;;;;;;;32.25;31.75;;;;;-142.59;100.00;56100.38;5093300;27;50108;-78
2022/03/29 00:22:59;;;;;;;;;40.25;35.50;;;;;-142.59;100.00;56100.38;5098604;27;50257;-76
2022/03/29 00:25:25;;;;;;;;;31.00;24.25;;;;;-142.59;100.00;56100.38;5110990;27;50587;-75
2022/03/29 00:27:50;;;;;;;;;36.75;34.75;;;;;-142.59;100.00;56100.38;5112385;27;49812;-79
2022/03/29 00:30:16;;;;;;;;;41.75;32.75;;;;;-142.59;100.00;56100.38;5105691;27;50128;-78
2022/03/29 00:32:43;;;;;;;;;40.50;36.50;;;;;-142.59;100.00;56100.38;5112729;27;49590;-76
2022/03/29 00:35:09;;;;;;;;;41.25;35.50;;;;;-142.59;100.00;56100.38;5108772;27;50394;-78
2022/03/29 00:37:36;;;;;;;;;40.75;37.25;;;;;-142.59;100.00;56100.38;5092804;27;49857;-78
2022/03/29 00:40:02;;;;;;;;;41.50;35.00;;;;;-142.59;100.00;56100.38;5092956;27;49904;-67
2022/03/29 00:42:28;;;;;;;;;34.75;32.00;;;;;-142.59;100.00;56100.38;5096190;27;49972;-79
2022/03/29 00:44:56;;;;;;;;;40.25;36.00;;;;;-142.59;100.00;56100.38;5110793;27;51580;-80
2022/03/29 00:47:22;;;;;;;;;35.25;30.25;;;;;-142.59;100.00;56100.38;5109522;27;49998;-75
2022/03/29 00:49:47;;;;;;;;;50.75;37.75;;;;;-142.59;100.00;56100.38;5107397;27;49756;-77
2022/03/29 00:52:13;;;;;;;;;44.25;36.25;;;;;-142.59;100.00;56100.38;5109319;27;50030;-77
2022/03/29 00:54:42;;;;;;;;;41.25;35.00;;;;;-142.59;100.00;56100.38;5104891;27;49762;-76
2022/03/29 00:57:11;;;;;;;;;49.50;37.75;;;;;-142.59;100.00;56100.38;5109530;27;49792;-71
2022/03/29 00:59:38;;;;;;;;;43.25;37.25;;;;;-142.59;100.00;56100.38;5103308;27;49884;-79
2022/03/29 01:02:04;;;;;;;;;48.50;36.00;;;;;-142.59;100.00;56100.38;5092661;27;50454;-71
2022/03/29 01:04:29;;;;;;;;;40.00;33.75;;;;;-142.59;100.00;56100.38;5096803;27;49902;-68
2022/03/29 01:06:59;;;;;;;;;37.50;34.00;;;;;-142.59;100.00;56100.38;5093455;27;49560;-75
2022/03/29 01:09:32;;;;;;;;;33.00;27.50;;;;;-142.59;100.00;56100.38;5115202;27;49876;-77
2022/03/29 01:11:58;;;;;;;;;34.25;30.75;;;;;-142.59;100.00;56100.38;5112417;27;49769;-65
2022/03/29 01:14:25;;;;;;;;;35.75;32.25;;;;;-142.59;100.00;56100.38;5111428;27;50865;-75
2022/03/29 01:19:37;;;;;;;;;35.00;33.00;;;;;-142.59;100.00;56100.38;5094450;27;49993;-80
2022/03/29 01:22:09;;;;;;;;;36.50;31.25;;;;;-142.59;100.00;56100.38;5095581;27;50029;-80
2022/03/29 01:24:36;;;;;;;;;35.25;33.00;;;;;-142.59;100.00;56100.38;5103338;27;50402;-79
2022/03/29 01:27:03;;;;;;;;;29.50;25.00;;;;;-142.59;100.00;56100.38;5105260;27;49737;-79
2022/03/29 01:29:30;;;;;;;;;33.50;32.50;;;;;-142.59;100.00;56100.38;5094388;27;49753;-80
2022/03/29 01:31:57;;;;;;;;;39.50;31.50;;;;;-142.59;100.00;56100.38;5098276;27;49740;-78
2022/03/29 01:34:23;;;;;;;;;41.00;35.00;;;;;-142.59;100.00;56100.38;5104442;27;50673;-79
2022/03/29 01:36:49;;;;;;;;;35.50;32.00;;;;;-142.59;100.00;56100.38;5096959;27;49832;-78
2022/03/29 01:39:15;;;;;;;;;37.75;35.00;;;;;-142.59;100.00;56100.38;5094809;27;49858;-79
2022/03/29 01:41:40;;;;;;;;;34.75;28.25;;;;;-142.59;100.00;56100.38;5101037;27;49860;-80
2022/03/29 01:44:07;;;;;;;;;40.00;32.00;;;;;-142.59;100.00;56100.38;5101160;27;50513;-80
2022/03/29 01:46:33;;;;;;;;;37.50;34.00;;;;;-142.59;100.00;56100.38;5101210;27;49849;-78
2022/03/29 01:49:02;;;;;;;;;31.50;29.50;;;;;-142.59;100.00;56100.38;5099851;27;49962;-76
2022/03/29 01:51:27;;;;;;;;;28.25;23.75;;;;;-142.59;100.00;56100.38;5102409;27;49790;-77
2022/03/29 01:53:55;;;;;;;;;36.25;33.00;;;;;-142.59;100.00;56100.38;5097536;27;51017;-77
2022/03/29 01:56:21;;;;;;;;;43.50;32.50;;;;;-142.59;100.00;56100.38;5098608;27;49886;-74
2022/03/29 01:58:46;;;;;;;;;32.00;29.50;;;;;-142.59;100.00;56100.38;5099842;27;49808;-77
2022/03/29 02:01:12;;;;;;;;;36.00;31.25;;;;;-142.59;100.00;56100.38;5101822;27;49692;-74
2022/03/29 02:03:38;;;;;;;;;36.75;33.00;;;;;-142.59;100.00;56100.38;5096478;27;49883;-73
2022/03/29 02:06:03;;;;;;;;;33.50;31.25;;;;;-142.59;100.00;56100.38;5091570;27;49972;-72
2022/03/29 02:08:29;;;;;;;;;40.00;34.50;;;;;-142.59;100.00;56100.38;5091637;27;49627;-71
2022/03/29 02:10:55;;;;;;;;;27.75;24.50;;;;;-142.59;100.00;56100.38;5091562;27;49724;-70
2022/03/29 02:13:21;;;;;;;;;31.00;27.25;;;;;-142.59;100.00;56100.38;5091213;27;50376;-72
2022/03/29 02:15:47;;;;;;;;;30.50;28.00;;;;;-142.59;100.00;56100.38;5092544;27;49806;-75
2022/03/29 02:18:12;;;;;;;;;33.25;29.25;;;;;-142.59;100.00;56100.38;5106050;27;49701;-79
2022/03/29 02:20:38;;;;;;;;;36.50;32.50;;;;;-142.59;100.00;56100.38;5090266;27;49979;-77
2022/03/29 02:23:08;;;;;;;;;32.00;29.25;;;;;-142.59;100.00;56100.38;5104303;27;49906;-79
2022/03/29 02:25:35;;;;;;;;;29.00;24.75;;;;;-142.59;100.00;56100.38;5103473;27;49908;-78
2022/03/29 02:28:02;;;;;;;;;26.25;24.75;;;;;-142.59;100.00;56100.38;5098090;27;49663;-73
2022/03/29 02:30:28;;;;;;;;;24.25;24.25;;;;;-142.59;100.00;56100.38;5091404;27;49781;-76
2022/03/29 02:32:53;;;;;;;;;28.75;28.75;;;;;-142.59;100.00;56100.38;5090766;27;49717;-71
2022/03/29 02:35:19;;;;;;;;;28.75;24.75;;;;;-142.59;100.00;56100.38;5091048;27;49899;-72
2022/03/29 02:37:44;;;;;;;;;28.50;26.75;;;;;-142.59;100.00;56100.38;5090740;27;49818;-78
2022/03/29 02:40:13;;;;;;;;;31.50;22.00;;;;;-142.59;100.00;56100.38;5091116;27;49832;-80
2022/03/29 02:42:43;;;;;;;;;28.25;26.00;;;;;-142.59;100.00;56100.38;5090671;27;49846;-80
2022/03/29 02:45:15;;;;;;;;;28.50;24.00;;;;;-142.59;100.00;56100.38;5090772;27;49827;-75
2022/03/29 02:47:44;;;;;;;;;28.25;24.50;;;;;-142.59;100.00;56100.38;5091111;27;49904;-79
2022/03/29 02:50:12;;;;;;;;;26.75;25.25;;;;;-142.59;100.00;56100.38;5094587;27;49802;-78
2022/03/29 02:52:48;;;;;;;;;21.00;17.00;;;;;-142.59;100.00;56100.38;5094094;27;50937;-79
2022/03/29 02:55:18;;;;;;;;;34.00;29.50;;;;;-142.59;100.00;56100.38;5106446;27;50008;-76
2022/03/29 02:57:45;;;;;;;;;27.00;25.50;;;;;-142.59;100.00;56100.38;5105193;27;49917;-78
2022/03/29 03:00:15;;;;;;;;;24.25;21.25;;;;;-142.59;100.00;56100.38;5094758;27;49635;-79
2022/03/29 03:02:43;;;;;;;;;24.75;19.00;;;;;-142.59;100.00;56100.38;5100569;27;49861;-79
2022/03/29 03:05:10;;;;;;;;;27.00;26.75;;;;;-142.59;100.00;56100.38;5094577;27;50000;-79
2022/03/29 03:07:35;;;;;;;;;30.25;25.00;;;;;-142.59;100.00;56100.38;5114289;27;49971;-78
2022/03/29 03:10:00;;;;;;;;;28.00;23.75;;;;;-142.59;100.00;56100.38;5095661;27;49793;-77
2022/03/29 03:12:26;;;;;;;;;27.25;23.75;;;;;-142.59;100.00;56100.38;5106885;27;49984;-79
2022/03/29 03:14:51;;;;;;;;;31.50;27.25;;;;;-142.59;100.00;56100.38;5103559;27;49808;-79
2022/03/29 03:17:17;;;;;;;;;24.50;22.25;;;;;-142.59;100.00;56100.38;5096745;27;49943;-76
2022/03/29 03:19:44;;;;;;;;;25.50;20.75;;;;;-142.59;100.00;56100.38;5105942;27;49851;-79
2022/03/29 03:22:10;;;;;;;;;29.25;25.50;;;;;-142.59;100.00;56100.38;5102008;27;50263;-74
2022/03/29 03:24:36;;;;;;;;;25.25;24.00;;;;;-142.59;100.00;56100.38;5106754;27;49908;-79
2022/03/29 03:27:02;;;;;;;;;29.00;24.75;;;;;-142.59;100.00;56100.38;5098551;27;50003;-79
2022/03/29 03:29:27;;;;;;;;;25.75;22.25;;;;;-142.59;100.00;56100.38;5100694;27;50321;-79
2022/03/29 03:31:52;;;;;;;;;27.00;25.00;;;;;-142.59;100.00;56100.38;5097676;27;49818;-80
2022/03/29 03:34:18;;;;;;;;;26.00;24.75;;;;;-142.59;100.00;56100.38;5104663;27;49868;-74
2022/03/29 03:36:43;;;;;;;;;29.75;28.25;;;;;-142.59;100.00;56100.38;5103552;27;50076;-73
2022/03/29 03:39:08;;;;;;;;;31.75;26.00;;;;;-142.59;100.00;56100.38;5107126;27;49843;-79
2022/03/29 03:41:34;;;;;;;;;27.25;23.50;;;;;-142.59;100.00;56100.38;5097773;27;50323;-80
2022/03/29 03:43:59;;;;;;;;;24.25;21.25;;;;;-142.59;100.00;56100.38;5115150;27;49838;-80
2022/03/29 03:46:25;;;;;;;;;27.75;22.75;;;;;-142.59;100.00;56100.38;5106418;27;49763;-79
2022/03/29 03:48:50;;;;;;;;;21.00;20.25;;;;;-142.59;100.00;56100.38;5106491;27;49898;-76
2022/03/29 03:51:15;;;;;;;;;27.50;23.00;;;;;-142.59;100.00;56100.38;5111111;27;51012;-78
2022/03/29 03:53:41;;;;;;;;;24.50;20.75;;;;;-142.59;100.00;56100.38;5104166;27;49628;-73
2022/03/29 03:56:07;;;;;;;;;27.00;24.50;;;;;-142.59;100.00;56100.38;5103177;27;49569;-79
2022/03/29 03:58:33;;;;;;;;;24.25;24.25;;;;;-142.59;100.00;56100.38;5098591;27;49727;-83
2022/03/29 04:00:58;;;;;;;;;35.50;27.50;;;;;-142.59;100.00;56100.38;5099228;27;50949;-78
2022/03/29 04:03:23;;;;;;;;;24.25;19.75;;;;;-142.59;100.00;56100.38;5105226;27;49649;-81
2022/03/29 04:05:49;;;;;;;;;20.50;15.75;;;;;-142.59;100.00;56100.38;5106864;27;50303;-80
2022/03/29 04:08:15;;;;;;;;;24.00;22.75;;;;;-142.59;100.00;56100.38;5106040;27;49835;-80
2022/03/29 04:10:41;;;;;;;;;31.25;24.75;;;;;-142.59;100.00;56100.38;5111674;27;50304;-79
2022/03/29 04:13:06;;;;;;;;;31.00;25.50;;;;;-142.59;100.00;56100.38;5105289;27;49618;-80
2022/03/29 04:15:32;;;;;;;;;27.00;21.75;;;;;-142.59;100.00;56100.38;5099893;27;49793;-80
2022/03/29 04:18:00;;;;;;;;;26.25;22.25;;;;;-142.59;100.00;56100.38;5107125;27;49984;-80
2022/03/29 04:20:25;;;;;;;;;31.25;23.00;;;;;-142.59;100.00;56100.38;5097534;27;50925;-80
2022/03/29 04:22:51;;;;;;;;;30.00;28.25;;;;;-142.59;100.00;56100.38;5120946;27;49885;-79
2022/03/29 04:25:17;;;;;;;;;30.75;25.00;;;;;-142.59;100.00;56100.38;5107701;27;49883;-79
2022/03/29 04:27:42;;;;;;;;;23.00;20.75;;;;;-142.59;100.00;56100.38;5097788;27;49870;-80
2022/03/29 04:30:09;;;;;;;;;25.25;23.25;;;;;-142.59;100.00;56100.38;5097266;27;50264;-70
2022/03/29 04:32:37;;;;;;;;;30.25;26.50;;;;;-142.59;100.00;56100.38;5104739;27;49693;-79
2022/03/29 04:35:04;;;;;;;;;22.50;18.25;;;;;-142.59;100.00;56100.38;5101413;27;49874;-78
2022/03/29 04:37:29;;;;;;;;;25.25;22.50;;;;;-142.59;100.00;56100.38;5091500;27;49825;-73
2022/03/29 04:39:55;;;;;;;;;33.75;24.75;;;;;-142.59;100.00;56100.38;5095322;27;50321;-77
2022/03/29 04:42:20;;;;;;;;;27.75;23.25;;;;;-142.59;100.00;56100.38;5094652;27;49891;-76
2022/03/29 04:44:46;;;;;;;;;34.75;29.25;;;;;-142.59;100.00;56100.38;5092141;27;49814;-81
2022/03/29 04:47:11;;;;;;;;;31.00;27.00;;;;;-142.59;100.00;56100.38;5097261;27;49842;-74
2022/03/29 04:49:37;;;;;;;;;24.75;23.75;;;;;-142.59;100.00;56100.38;5111051;27;50334;-77
2022/03/29 04:52:03;;;;;;;;;27.25;23.75;;;;;-142.59;100.00;56100.38;5061715;27;1109159;-79
2022/03/29 04:54:28;;;;;;;;;29.75;27.25;;;;;-142.59;100.00;56100.38;5092809;27;49741;-77
2022/03/29 04:56:54;;;;;;;;;31.00;25.25;;;;;-142.59;100.00;56100.38;5098521;27;49998;-79
2022/03/29 04:59:19;;;;;;;;;29.25;27.25;;;;;-142.59;100.00;56100.38;5112002;27;50541;-77
2022/03/29 05:01:45;;;;;;;;;31.00;26.75;;;;;-142.59;100.00;56100.38;5108732;27;49798;-80
2022/03/29 05:04:10;;;;;;;;;25.50;24.00;;;;;-142.59;100.00;56100.38;5104759;27;49835;-71
2022/03/29 05:06:36;;;;;;;;;27.75;24.50;;;;;-142.59;100.00;56100.38;5105429;27;49853;-78
2022/03/29 05:09:04;;;;;;;;;28.50;24.75;;;;;-142.59;100.00;56100.38;5093645;27;50892;-80
2022/03/29 05:11:30;;;;;;;;;27.75;26.50;;;;;-142.59;100.00;56100.38;5100526;27;49711;-79
2022/03/29 05:13:55;;;;;;;;;32.75;27.25;;;;;-142.59;100.00;56100.38;5099567;27;50073;-73
2022/03/29 05:16:20;;;;;;;;;34.25;28.25;;;;;-142.59;100.00;56100.38;5095741;27;49567;-80
2022/03/29 05:18:46;;;;;;;;;28.75;26.50;;;;;-142.59;100.00;56100.38;5098469;27;49675;-79
2022/03/29 05:21:12;;;;;;;;;25.00;23.50;;;;;-142.59;100.00;56100.38;5098574;27;49972;-78
2022/03/29 05:23:37;;;;;;;;;37.50;27.00;;;;;-142.59;100.00;56100.38;5106046;27;49837;-77
2022/03/29 05:26:03;;;;;;;;;23.75;21.00;;;;;-142.59;100.00;56100.38;5105503;27;49897;-80
2022/03/29 05:28:28;;;;;;;;;28.75;25.50;;;;;-142.59;100.00;56100.38;5111198;27;49622;-78
2022/03/29 05:30:53;;;;;;;;;32.75;30.50;;;;;-142.59;100.00;56100.38;5104491;27;49964;-79
2022/03/29 05:33:19;;;;;;;;;35.50;32.00;;;;;-142.59;100.00;56100.38;5106927;27;49825;-75
2022/03/29 05:35:45;;;;;;;;;29.00;26.00;;;;;-142.59;100.00;56100.38;5101270;27;49797;-74
2022/03/29 05:38:11;;;;;;;;;29.00;24.25;;;;;-142.59;100.00;56100.38;5118378;27;49505;-73
2022/03/29 05:40:37;;;;;;;;;35.25;32.00;;;;;-142.59;100.00;56100.38;5108364;27;49847;-70
2022/03/29 05:43:02;;;;;;;;;30.50;30.00;;;;;-142.59;100.00;56100.38;5105278;27;49948;-77
2022/03/29 05:45:31;;;;;;;;;38.75;32.00;;;;;-142.59;100.00;56100.38;5114270;27;50145;-77
2022/03/29 05:50:40;;;;;;;;;26.50;24.75;;;;;-142.59;100.00;56100.38;5108520;27;49730;-72
2022/03/29 05:53:05;;;;;;;;;30.50;27.00;;;;;-142.59;100.00;56100.38;5101112;27;49942;-71
2022/03/29 05:55:31;;;;;;;;;33.00;29.25;;;;;-142.59;100.00;56100.38;5107411;27;49748;-73
2022/03/29 05:57:57;;;;;;;;;41.50;32.75;;;;;-142.59;100.00;56100.38;5100744;27;51394;-78
2022/03/29 06:00:23;;;;;;;;;29.00;26.75;;;;;-142.59;100.00;56100.38;5103231;27;49900;-71
2022/03/29 06:02:50;;;;;;;;;26.50;25.25;;;;;-142.59;100.00;56100.38;5099380;27;49657;-70
2022/03/29 06:05:15;;;;;;;;;33.25;24.75;;;;;-142.59;100.00;56100.38;5098957;27;49961;-79
2022/03/29 06:07:41;;;;;;;;;30.75;28.25;;;;;-142.59;100.00;56100.38;5094423;27;49744;-75
2022/03/29 06:10:07;;;;;;;;;36.50;34.75;;;;;-142.59;100.00;56100.38;5105925;27;49802;-78
2022/03/29 06:12:33;;;;;;;;;34.25;30.50;;;;;-142.59;100.00;56100.38;5104160;27;49657;-77
2022/03/29 06:15:02;;;;;;;;;31.75;29.75;;;;;-142.59;100.00;56100.38;5092275;27;49807;-72
2022/03/29 06:17:27;;;;;;;;;33.25;31.25;;;;;-142.59;100.00;56100.38;5098646;27;49892;-73
2022/03/29 06:19:54;;;;;;;;;37.50;31.25;;;;;-142.59;100.00;56100.38;5112429;27;50005;-72
2022/03/29 06:22:20;;;;;;;;;34.00;29.75;;;;;-142.59;100.00;56100.38;5093000;27;49722;-71
2022/03/29 06:24:46;;;;;;;;;35.00;28.50;;;;;-142.59;100.00;56100.38;5096455;27;49793;-72
2022/03/29 06:27:11;;;;;;;;;29.75;23.00;;;;;-142.59;100.00;56100.38;5109931;27;49962;-74
2022/03/29 06:29:37;;;;;;;;;29.75;26.25;;;;;-142.59;100.00;56100.38;5096300;27;49688;-71
2022/03/29 06:32:03;;;;;;;;;37.00;28.00;;;;;-142.59;100.00;56100.38;5098472;27;49948;-74
2022/03/29 06:34:29;;;;;;;;;32.75;27.25;;;;;-142.59;100.00;56100.38;5103634;27;50077;-73
2022/03/29 06:36:55;;;;;;;;;31.25;30.50;;;;;-142.59;100.00;56100.38;5093826;27;50182;-71
2022/03/29 06:39:21;;;;;;;;;37.50;33.25;;;;;-142.59;100.00;56100.38;5107400;27;49876;-70
2022/03/29 06:41:46;;;;;;;;;32.25;29.00;;;;;-142.59;100.00;56100.38;5110119;27;49921;-75
2022/03/29 06:44:13;;;;;;;;;28.50;24.50;;;;;-142.59;100.00;56100.38;5091428;27;49939;-79
2022/03/29 06:46:39;;;;;;;;;34.25;29.75;;;;;-142.59;100.00;56100.38;5090605;27;49926;-80
2022/03/29 06:49:06;;;;;;;;;43.50;32.50;;;;;-142.59;100.00;56100.38;5093776;27;49866;-85
2022/03/29 06:51:32;;;;;;;;;36.50;33.00;;;;;-142.59;100.00;56100.38;5095090;27;49766;-74
2022/03/29 06:53:58;;;;;;;;;37.50;29.00;;;;;-142.59;100.00;56100.38;5094433;27;49981;-80
2022/03/29 06:56:25;;;;;;;;;37.75;31.00;;;;;-142.59;100.00;56100.38;5106191;27;50304;-79
2022/03/29 06:58:51;;;;;;;;;35.00;31.25;;;;;-142.59;100.00;56100.38;5102082;27;49696;-82
2022/03/29 07:01:16;;;;;;;;;30.00;27.25;;;;;-142.59;100.00;56100.38;5093598;27;50142;-81
2022/03/29 07:03:42;;;;;;;;;33.50;31.50;;;;;-142.59;100.00;56100.38;5090306;27;49956;-81
2022/03/29 07:06:08;;;;;;;;;31.25;29.50;;;;;-142.59;100.00;56100.38;5090368;27;50552;-79
2022/03/29 07:08:33;;;;;;;;;32.75;29.50;;;;;-142.59;100.00;56100.38;5103042;27;49828;-82
2022/03/29 07:11:19;;;;;;;;;38.00;30.25;;;;;-142.59;100.00;56100.38;5090990;27;49914;-76
2022/03/29 07:13:44;;;;;;;;;38.25;30.25;;;;;-142.59;100.00;56100.38;5090809;27;49833;-72
2022/03/29 07:16:10;;;;;;;;;31.00;23.75;;;;;-142.59;100.00;56100.38;5090760;27;49726;-75
2022/03/29 07:18:36;;;;;;;;;34.75;29.50;;;;;-142.59;100.00;56100.38;5089224;27;49791;-72
2022/03/29 07:21:02;;;;;;;;;33.00;29.50;;;;;-142.59;100.00;56100.38;5091006;27;50009;-68
2022/03/29 07:23:29;;;;;;;;;36.00;33.00;;;;;-142.59;100.00;56100.38;5090706;27;49822;-75
2022/03/29 07:25:55;;;;;;;;;37.75;30.75;;;;;-142.59;100.00;56100.38;5090183;27;49850;-83
2022/03/29 07:28:20;;;;;;;;;42.75;33.00;;;;;-142.59;100.00;56100.38;5092449;27;50002;-75
2022/03/29 07:30:46;;;;;;;;;34.50;28.75;;;;;-142.59;100.00;56100.38;5110954;27;49804;-74
2022/03/29 07:33:11;;;;;;;;;36.50;30.25;;;;;-142.59;100.00;56100.38;5111667;27;49773;-75
2022/03/29 07:35:38;;;;;;;;;42.25;33.50;;;;;-142.59;100.00;56100.38;5112969;27;49812;-80
2022/03/29 07:38:07;;;;;;;;;36.00;31.25;;;;;-142.59;100.00;56100.38;5113863;27;49740;-75
2022/03/29 07:40:33;;;;;;;;;38.50;32.75;;;;;-142.59;100.00;56100.38;5113716;27;49780;-78
2022/03/29 07:42:59;;;;;;;;;54.75;44.50;;;;;-142.59;100.00;56100.38;5113733;27;49723;-75
2022/03/29 07:45:24;;;;;;;;;87.67;82.67;;;;;-142.59;100.00;56100.38;5113593;27;50799;-78
2022/03/29 07:47:52;;;;;;;;;86.33;76.67;;;;;-142.59;100.00;56100.38;5113624;27;50037;-74
2022/03/29 07:50:18;;;;;;;;;48.75;37.50;;;;;-142.59;100.00;56100.38;5113477;27;49770;-77
2022/03/29 07:52:43;;;;;;;;;45.50;36.75;;;;;-142.59;100.00;56100.38;5094149;27;49780;-75
2022/03/29 07:55:11;;;;;;;;;38.75;33.75;;;;;-142.59;100.00;56100.38;5093612;27;51312;-74
2022/03/29 07:57:37;;;;;;;;;27.75;22.25;;;;;-142.59;100.00;56100.38;5092324;27;49859;-73
2022/03/29 08:02:53;;;;;;;;;43.25;35.50;;;;;-142.59;100.00;56100.38;5109020;27;49738;-70
2022/03/29 08:05:20;;;;;;;;;41.00;32.25;;;;;-142.59;100.00;56100.38;5114216;27;50059;-71
2022/03/29 08:07:46;;;;;;;;;45.00;32.75;;;;;-142.59;100.00;56100.38;5113453;27;49831;-70
2022/03/29 08:10:12;;;;;;;;;37.75;33.00;;;;;-142.59;100.00;56100.38;5113824;27;49833;-74
2022/03/29 08:12:41;;;;;;;;;35.25;30.75;;;;;-142.59;100.00;56100.38;5113479;27;49865;-66
2022/03/29 08:15:08;;;;;;;;;40.00;31.75;;;;;-142.59;100.00;56100.38;5112880;27;50636;-69
2022/03/29 08:17:34;;;;;;;;;42.75;36.25;;;;;-142.59;100.00;56100.38;5112787;27;49589;-69
2022/03/29 08:20:00;;;;;;;;;42.00;32.50;;;;;-142.59;100.00;56100.38;5113000;27;49790;-70
2022/03/29 08:22:26;;;;;;;;;34.50;30.75;;;;;-142.59;100.00;56100.38;5113326;27;50165;-68
2022/03/29 08:24:51;;;;;;;;;42.50;32.25;;;;;-142.59;100.00;56100.38;5112953;27;49833;-69
2022/03/29 08:27:17;;;;;;;;;35.75;32.50;;;;;-142.59;100.00;56100.38;5112799;27;49673;-71
2022/03/29 08:29:43;;;;;;;;;30.50;28.00;;;;;-142.59;100.00;56100.38;5112979;27;49700;-66
2022/03/29 08:32:08;;;;;;;;;40.75;35.25;;;;;-142.59;100.00;56100.38;5112836;27;49789;-65
2022/03/29 08:34:34;;;;;;;;;30.00;28.50;;;;;-142.59;100.00;56100.38;5111861;27;50510;-67
2022/03/29 08:36:59;;;;;;;;;37.75;31.00;;;;;-142.59;100.00;56100.38;5112488;27;49665;-68
2022/03/29 08:39:24;;;;;;;;;35.25;31.50;;;;;-142.59;100.00;56100.38;5112547;27;49833;-72
2022/03/29 08:42:02;;;;;;;;;41.00;32.50;;;;;-142.59;100.00;56100.38;5112628;27;49822;-63
2022/03/29 08:44:31;;;;;;;;;42.25;30.25;;;;;-142.59;100.00;56100.38;5112608;27;49838;-74
2022/03/29 08:46:57;;;;;;;;;33.25;32.00;;;;;-142.59;100.00;56100.38;5110968;27;49794;-64
2022/03/29 08:49:23;;;;;;;;;32.75;29.75;;;;;-142.59;100.00;56100.38;5112258;27;49858;-65
2022/03/29 08:51:49;;;;;;;;;39.25;33.00;;;;;-142.59;100.00;56100.38;5111424;27;50243;-71
2022/03/29 08:54:15;;;;;;;;;39.25;32.50;;;;;-142.59;100.00;56100.38;5111902;27;50388;-71
2022/03/29 08:56:41;;;;;;;;;31.50;27.00;;;;;-142.59;100.00;56100.38;5112156;27;49954;-66
2022/03/29 08:59:07;;;;;;;;;35.00;32.25;;;;;-142.59;100.00;56100.38;5112023;27;49817;-69
2022/03/29 09:01:32;;;;;;;;;41.50;33.00;;;;;-142.59;100.00;56100.38;5112332;27;49886;-59
2022/03/29 09:04:12;;;;;;;;;44.25;33.75;;;;;-142.59;100.00;56100.38;5111648;27;49647;-69
2022/03/29 09:06:50;;;;;;;;;44.00;35.25;;;;;-142.59;100.00;56100.38;5112181;27;49943;-71
2022/03/29 09:09:30;;;;;;;;;39.25;33.75;;;;;-142.59;100.00;56100.38;5112000;27;49831;-72
2022/03/29 09:12:17;;;;;;;;;43.00;35.00;;;;;-142.59;100.00;56100.38;5111782;27;49757;-73
2022/03/29 09:14:57;;;;;;;;;37.25;33.75;;;;;-142.59;100.00;56100.38;5111534;27;49820;-73
2022/03/29 09:17:30;;;;;;;;;40.00;33.50;;;;;-142.59;100.00;56100.38;5111762;27;49863;-72
2022/03/29 09:19:57;;;;;;;;;40.25;34.00;;;;;-142.59;100.00;56100.38;5111230;27;49841;-70
2022/03/29 09:22:46;;;;;;;;;40.25;32.25;;;;;-142.59;100.00;56100.38;5112122;27;49665;-73
2022/03/29 09:25:23;;;;;;;;;32.25;29.75;;;;;-142.59;100.00;56100.38;5108187;27;51525;-73
2022/03/29 09:27:56;;;;;;;;;37.25;31.00;;;;;-142.59;100.00;56100.38;5111517;27;49904;-73
2022/03/29 09:30:24;;;;;;;;;37.75;33.00;;;;;-142.59;100.00;56100.38;5111541;27;49619;-71
2022/03/29 09:32:54;;;;;;;;;39.75;26.75;;;;;-142.59;100.00;56100.38;5111674;27;49768;-72
2022/03/29 09:35:20;;;;;;;;;38.25;33.50;;;;;-142.59;100.00;56100.38;5111473;27;50525;-67
2022/03/29 09:37:45;;;;;;;;;29.25;28.25;;;;;-142.59;100.00;56100.38;5111474;27;49738;-65
2022/03/29 09:40:12;;;;;;;;;35.25;32.25;;;;;-142.59;100.00;56100.38;5111512;27;49847;-63
2022/03/29 09:42:40;;;;;;;;;35.75;32.00;;;;;-142.59;100.00;56100.38;5111565;27;49867;-64
2022/03/29 09:45:07;;;;;;;;;40.75;33.50;;;;;-142.59;100.00;56100.38;5111314;27;50519;-65
2022/03/29 09:47:32;;;;;;;;;43.75;35.25;;;;;-142.59;100.00;56100.38;5111251;27;49988;-70
2022/03/29 09:50:01;;;;;;;;;38.25;33.50;;;;;-142.59;100.00;56100.38;5111470;27;49735;-71
2022/03/29 09:52:28;;;;;;;;;35.50;30.75;;;;;-142.59;100.00;56100.38;5111003;27;50114;-73
2022/03/29 09:55:03;;;;;;;;;43.75;34.00;;;;;-142.59;100.00;56100.38;5111051;27;49800;-67
2022/03/29 09:57:45;;;;;;;;;43.25;34.25;;;;;-142.59;100.00;56100.38;5105450;27;49865;-68
2022/03/29 10:00:37;;;;;;;;;41.50;33.25;;;;;-142.59;100.00;56100.38;5105253;27;49800;-67
2022/03/29 10:03:06;;;;;;;;;47.25;36.25;;;;;-142.59;100.00;56100.38;5104881;27;49886;-70
2022/03/29 10:05:34;;;;;;;;;43.00;34.50;;;;;-142.59;100.00;56100.38;5106639;27;50957;-73
2022/03/29 10:10:51;;;;;;;;;46.25;38.50;;;;;-142.59;100.00;56100.38;5105426;27;49834;-73
2022/03/29 10:13:23;;;;;;;;;38.25;32.75;;;;;-142.59;100.00;56100.38;5105654;27;50162;-71
2022/03/29 10:15:49;;;;;;;;;9.75;6.25;;;;;-142.59;100.00;56100.38;5106311;27;49844;-71
2022/03/29 10:18:15;;;;;;;;;40.25;30.75;;;;;-142.59;100.00;56100.38;5106809;27;49903;-66
2022/03/29 10:20:41;;;;;;;;;43.75;36.25;;;;;-142.59;100.00;56100.38;5091510;27;49685;-68
2022/03/29 10:23:07;;;;;;;;;44.75;35.75;;;;;-142.59;100.00;56100.38;5090099;27;50016;-71
2022/03/29 10:25:33;;;;;;;;;36.00;31.75;;;;;-142.59;100.00;56100.38;5090975;27;49630;-66
2022/03/29 10:28:01;;;;;;;;;42.25;35.50;;;;;-142.59;100.00;56100.38;5090880;27;49948;-69
2022/03/29 10:30:34;;;;;;;;;33.25;29.25;;;;;-142.59;100.00;56100.38;5091363;27;49787;-68
2022/03/29 10:33:31;;;;;;;;;46.00;36.75;;;;;-142.59;100.00;56100.38;5091441;27;49815;-67
2022/03/29 10:36:00;;;;;;;;;45.75;36.75;;;;;-142.59;100.00;56100.38;5091084;27;49865;-69
2022/03/29 10:38:46;;;;;;;;;47.75;36.50;;;;;-142.59;100.00;56100.38;5098493;27;49845;-72
2022/03/29 10:41:28;;;;;;;;;48.00;36.25;;;;;-142.59;100.00;56100.38;5090804;27;50553;-67
2022/03/29 10:44:01;;;;;;;;;47.25;37.25;;;;;-142.59;100.00;56100.38;5090652;27;49794;-73
2022/03/29 10:46:51;;;;;;;;;40.50;34.00;;;;;-142.59;100.00;56100.38;5090814;27;50376;-65
2022/03/29 10:49:25;;;;;;;;;41.75;34.75;;;;;-142.59;100.00;56100.38;5091021;27;49897;-70
2022/03/29 10:51:53;;;;;;;;;43.75;36.75;;;;;-142.59;100.00;56100.38;5090707;27;49650;-71
2022/03/29 10:54:31;;;;;;;;;37.25;32.25;;;;;-142.59;100.00;56100.38;5091215;27;49721;-72
2022/03/29 10:56:58;;;;;;;;;42.25;33.50;;;;;-142.59;100.00;56100.38;5090364;27;50062;-63
2022/03/29 10:59:25;;;;;;;;;43.50;36.00;;;;;-142.59;100.00;56100.38;5090714;27;49706;-69
2022/03/29 11:02:06;;;;;;;;;36.50;32.25;;;;;-142.59;100.00;56100.38;5090633;27;49970;-67
2022/03/29 11:04:32;;;;;;;;;42.50;36.50;;;;;-142.59;100.00;56100.38;5089373;27;49791;-74
2022/03/29 11:07:06;;;;;;;;;39.75;32.50;;;;;-142.59;100.00;56100.38;5090386;27;50160;-75